Lobo

Go HERE for most recent data if this page is not up to date.

Jump to table bottom
Date/Time Temp deg F RH % 24 Hr Snow (in) Snow Depth (in) H2O (in)
02/06 10:00 16.4 75 2.7 59.1 0.00
02/06 09:00 15.2 79 2.8 59.1 0.00
02/06 08:00 15.2 81 2.8 59.4 0.00
02/06 07:00 15.5 81 2.8 59.4 0.01
02/06 06:00 16.1 87 2.9 59.4 0.02
02/06 05:00 16.5 84 2.7 59.0 0.01
02/06 04:00 16.7 80 2.3 58.6 0.02
02/06 03:00 16.4 89 1.6 58.1 0.01
02/06 02:00 16.4 87 1.4 57.7 0.00
02/06 01:00 16.5 87 1.6 58.6 0.00
02/06 00:00 16.8 85 1.6 57.7 0.00
02/05 23:00 17.8 81 1.6 58.0 0.01
02/05 22:00 18.4 81 1.0 57.9 0.00
02/05 21:00 18.6 81 1.2 57.7 0.02
02/05 20:00 19.2 86 0.5 57.0 0.02
02/05 19:00 20.2 83 0.0 56.7 0.00
02/05 18:00 20.7 77 0.0 56.4 0.00
02/05 17:00 21.6 76 -0.0 56.4 0.00
02/05 16:00 22.0 75 0.6 56.4 0.00
02/05 15:00 21.1 84 0.7 56.3 0.01
02/05 14:00 21.4 84 0.2 55.8 0.01
02/05 13:00 22.8 80 -0.0 55.8 0.00
02/05 12:00 23.4 67 0.0 55.9 0.00
02/05 11:00 23.6 63 0.0 55.9 0.00
02/05 10:00 23.1 52 0.2 56.0 0.00
02/05 09:00 19.6 63 0.1 56.0 0.00
02/05 08:00 19.6 65 0.1 56.1 0.00
02/05 07:00 20.6 63 0.1 56.1 0.00
02/05 06:00 20.5 55 0.2 56.2 0.00
02/05 05:00 20.2 48 0.3 56.1 0.00
02/05 04:00 18.6 62 0.2 56.2 0.00
02/05 03:00 20.8 63 0.0 56.3 0.00
02/05 02:00 18.9 36 0.4 56.3 0.00
02/05 01:00 17.1 65 0.3 56.3 0.00
02/05 00:00 18.3 81 0.1 56.3 0.00
.